Weather observations for the past three days for
Davis-Monthan Air Force Base
| Date | Time (mst) | Wind (mph) | Vis. (mi.) | Weather | Sky Cond. | Temperature (ºF) | Relative Humidity | Wind Chill (°F) | Heat Index (°F) | Pressure | Precipitation (in) | ||||||
|---|---|---|---|---|---|---|---|---|---|---|---|---|---|---|---|---|---|
| Air | Dwpt | 6 hour | altimeter (in) | sea level (mb) | 1 hr | 3 hr | 6 hr | ||||||||||
| Max. | Min. | ||||||||||||||||
| 02 | 20:55 | SE 8 | 10.00 | Mostly Cloudy | SCT120 BKN140 | 84.2 | 64.6 | 52% | 86 | 30 | 1015.5 | ||||||
| 02 | 19:55 | SE 6 | 10.00 | Mostly Cloudy | BKN130 | 84.9 | 64.8 | 51% | 87 | 29.99 | 1015.3 | ||||||
| 02 | 18:55 | SW 6 | 10.00 | Mostly Cloudy | BKN130 | 85.6 | 63.7 | 48% | 87 | 29.97 | 1014.6 | ||||||
| 02 | 17:55 | S 9 | 10.00 | Fair | CLR | 88 | 60.6 | 40% | 88 | 29.97 | 1014.6 | ||||||
| 02 | 16:55 | S 9 | 10.00 | A Few Clouds | FEW140 | 90.5 | 59.9 | 93.6 | 85.5 | 36% | 90 | 29.98 | 1014.8 | ||||
| 02 | 15:55 | S 13 | 10.00 | Fair | CLR | 90.1 | 60.3 | 37% | 90 | 29.99 | 1015.3 | ||||||
| 02 | 14:55 | S 9 | 10.00 | Overcast | OVC120 | 85.8 | 60.1 | 42% | 86 | 30.01 | 1011.8 | ||||||
| 02 | 13:55 | W 8 | 10.00 | Mostly Cloudy | BKN130 | 90.5 | 64.9 | 43% | 92 | 30.02 | 1011.9 | ||||||
| 02 | 12:55 | W 8 | 10.00 | Thunderstorm in Vicinity | CLR | 93.4 | 63.9 | 38% | 95 | 30.02 | 1011.7 | ||||||
| 02 | 11:55 | SW 3 | 10.00 | Fair | CLR | 90.1 | 63.1 | 41% | 91 | 30.06 | 1017.5 | ||||||
| 02 | 10:55 | W 5 | 10.00 | Fair | CLR | 89.4 | 65.1 | 89.4 | 75.4 | 45% | 91 | 30.08 | 1018.1 | ||||
| 02 | 09:55 | Calm | 10.00 | Fair | CLR | 87.1 | 64.9 | 48% | 89 | 30.08 | 1018.1 | ||||||
| 02 | 08:55 | SE 6 | 10.00 | Fair | CLR | 84.6 | 66.6 | 55% | 87 | 30.08 | 1018.2 | ||||||
| 02 | 07:55 | SE 6 | 10.00 | Fair | CLR | 81.9 | 66 | 59% | 84 | 30.08 | 1018.2 | ||||||
| 02 | 06:55 | Calm | 10.00 | Fair | CLR | 77 | 66.7 | 71% | 79 | 30.07 | 1018.0 | ||||||
| 02 | 05:55 | SE 7 | 10.00 | Fair | CLR | 76.1 | 66.4 | 72% | 78 | 30.05 | 1017.2 | ||||||
| 02 | 04:55 | SE 9 | 10.00 | Fair | CLR | 76.1 | 66.4 | 80.6 | 75.6 | 72% | 78 | 30.05 | 1017.2 | ||||
| 02 | 03:55 | E 8 | 10.00 | Fair | CLR | 76.5 | 66.7 | 72% | 78 | 30.05 | 1017.2 | ||||||
| 02 | 02:55 | SE 6 | 10.00 | NULL | NULL | 76.6 | 66.9 | 72% | 78 | 30.05 | 1017.2 | ||||||
| 02 | 01:55 | SE 7 | 10.00 | Fair | CLR | 77.9 | 66 | 67% | 80 | 30.04 | 1016.8 | ||||||
| 02 | 00:55 | E 5 | 10.00 | Fair | CLR | 78.8 | 66.4 | 66% | 81 | 30.04 | 1016.8 | ||||||
| 01 | 23:55 | SE 7 | 10.00 | Fair | CLR | 79.7 | 67.6 | 67% | 82 | 30.04 | 1016.8 | ||||||
| 01 | 22:55 | SE 7 | 10.00 | Fair | CLR | 80.4 | 68.9 | 92.7 | 80.1 | 68% | 83 | 30.04 | 1017.0 | ||||
| 01 | 21:55 | S 3 | 10.00 | Fair | CLR | 82.8 | 67.5 | 60% | 86 | 30.04 | 1012.7 | ||||||
| 01 | 20:55 | W 3 | 10.00 | Fair | CLR | 84.6 | 66 | 54% | 87 | 30.03 | 1012.4 | ||||||
| 01 | 19:55 | W 3 | 10.00 | Fair | CLR | 85.6 | 64.8 | 50% | 87 | 29.99 | 1011.2 | ||||||
| 01 | 18:55 | W 7 | 10.00 | Fair | CLR | 87.3 | 61.3 | 42% | 87 | 29.97 | 1010.5 | ||||||
| 01 | 17:55 | W 12 | 10.00 | Fair | CLR | 91.6 | 60.8 | 36% | 92 | 29.96 | 1010.1 | ||||||
| 01 | 16:55 | W 9 | 10.00 | Fair | CLR | 92.5 | 61.5 | 93.4 | 85.3 | 36% | 93 | 29.97 | 1010.3 | ||||
| 01 | 15:55 | W 9 | 10.00 | Fair | CLR | 93 | 62.1 | 36% | 94 | 29.98 | 1010.6 | ||||||
| 01 | 14:55 | Calm | 10.00 | Fair | CLR | 91.9 | 58.6 | 33% | 91 | 30 | 1011.5 | ||||||
| 01 | 13:55 | W 8 | 10.00 | Fair | CLR | 91 | 59.5 | 35% | 90 | 30.03 | 1012.4 | ||||||
| 01 | 12:55 | W 7 | 10.00 | Fair | CLR | 88.7 | 59.7 | 38% | 88 | 30.05 | 1017.5 | ||||||
| 01 | 11:55 | Calm | 10.00 | Fair | CLR | 87.8 | 59.7 | 39% | 87 | 30.07 | 1018.2 | ||||||
| 01 | 10:55 | S 3 | 10.00 | Fair | CLR | 85.1 | 60.1 | 85.6 | 70.2 | 43% | 85 | 30.08 | 1018.6 | ||||
| 01 | 09:55 | Calm | 10.00 | Fair | CLR | 82.8 | 62.2 | 50% | 84 | 30.08 | 1018.7 | ||||||
| 01 | 08:55 | E 7 | 10.00 | Fair | CLR | 80.1 | 64.4 | 59% | 82 | 30.08 | 1018.7 | ||||||
| 01 | 07:55 | SE 6 | 10.00 | Fair | CLR | 76.1 | 64.8 | 68% | 78 | 30.09 | 1019.2 | ||||||
| 01 | 06:55 | E 8 | 10.00 | Fair | CLR | 72.3 | 66.2 | 81% | 30.07 | 1018.7 | |||||||
| 01 | 05:55 | E 8 | 10.00 | Fair | CLR | 70.3 | 65.7 | 85% | 30.05 | 1018.0 | |||||||
| 01 | 04:55 | E 9 | 10.00 | Fair | CLR | 70.5 | 66.4 | 74.1 | 70.2 | 87% | 30.04 | 1017.7 | |||||
| 01 | 03:55 | SE 7 | 10.00 | Fair | CLR | 70.3 | 66.6 | 88% | 30.04 | 1017.7 | |||||||
| 01 | 02:55 | SE 7 | 7.00 | Fair | CLR | 71.2 | 66.4 | 85% | 30.03 | 1017.5 | |||||||
| 01 | 01:55 | SE 6 | 10.00 | Fair | CLR | 72 | 66.6 | 83% | 30.04 | 1018.0 | |||||||
| 01 | 00:55 | SE 7 | 10.00 | Fair | CLR | 73 | 66 | 79% | 30.04 | 1018.0 | |||||||
| 31 | 23:55 | S 6 | 10.00 | Fair | CLR | 73.2 | 66.9 | 81% | 30.04 | 1018.0 | |||||||
| 31 | 22:55 | SE 5 | 10.00 | Fair | CLR | 74.3 | 66.6 | 80.1 | 74.1 | 77% | 30.05 | 1018.2 | |||||
| 31 | 21:55 | SE 6 | 10.00 | Fair | CLR | 75.6 | 66.6 | 74% | 77 | 30.05 | 1017.9 | ||||||
| 31 | 20:55 | E 8 | 10.00 | Fair | CLR | 77 | 66.7 | 71% | 79 | 30.05 | 1017.9 | ||||||
| 31 | 19:55 | E 9 | 10.00 | Mostly Cloudy | BKN150 | 77.7 | 68 | 72% | 80 | 30.02 | 1017.0 | ||||||
| 31 | 18:55 | Calm | 10.00 | A Few Clouds | FEW180 | 79 | 65.7 | 64% | 81 | 30 | 1016.3 | ||||||
| 31 | 17:55 | Calm | 10.00 | Fair | CLR | 80.1 | 64.9 | 60% | 82 | 29.98 | 1015.6 | ||||||
| 31 | 15:55 | SE 12 | 10.00 | Fair | CLR | 79 | 66.6 | 66% | 81 | 30 | 1015.8 | ||||||
| 31 | 14:55 | E 13 | 10.00 | A Few Clouds | FEW160 | 74.8 | 67.8 | 79% | 30.04 | 1017.3 | 0.01 | ||||||
| 31 | 13:55 | NE 9 | 10.00 | Light Rain | CLR | 71.8 | 66.6 | 84% | 30.07 | 1018.4 | 0.09 | 0.71 | |||||
| 31 | 12:55 | NE 9 | 10.00 | Light Showers Rain | BKN070 | 70 | 65.3 | 85% | 30.14 | 1016.6 | 0.31 | ||||||
| 31 | 11:55 | W 9 | 5.00 | Thunderstorm in Vicinity Light Showers Rain | FEW021 FEW028 SCT039 BKN048 | 68.7 | 65.7 | 90% | 30.15 | 1021.3 | 0.31 | ||||||
| 31 | 10:55 | SW 14 | 10.00 | Thunderstorm | OVC065 | 73 | 66.7 | 79.9 | 70.2 | 81% | 30.13 | 1020.3 | 0.28 | ||||
| 31 | 09:55 | W 13 | 10.00 | Overcast | OVC065 | 77.4 | 67.6 | 72% | 79 | 30.1 | 1019.1 | ||||||
| 31 | 08:55 | Calm | 10.00 | Partly Cloudy | SCT095 | 78.4 | 66.9 | 68% | 81 | 30.06 | 1013.2 | ||||||
| 31 | 07:55 | SE 9 | 10.00 | Fair | CLR | 74.1 | 67.1 | 79% | 30.06 | 1013.2 | 0.28 | ||||||
| 31 | 06:55 | SE 6 | 10.00 | Fair | CLR | 72.3 | 66.6 | 82% | 30.05 | 1013.1 | |||||||
| 31 | 05:55 | NW 12 | 10.00 | Thunderstorm Light Rain in Vicinity | FEW035 SCT065 BKN095 | 70.5 | 67.1 | 89% | 30.05 | 1012.9 | 0.28 | ||||||
| 31 | 04:55 | W 9 | 10.00 | Thunderstorm Rain | BKN049 OVC060 | 72 | 66.7 | 87.1 | 71.6 | 84% | 30.05 | 1012.9 | 0.01 | 0.01 | |||
| 31 | 03:57 | S 6 | 10.00 | Thunderstorm in Vicinity | SCT060 | 82.4 | 60.6 | 48% | 83 | 30 | 1015.0 | ||||||
| 31 | 02:55 | E 8 | 10.00 | Fair | CLR | 83.1 | 60.1 | 46% | 83 | 29.96 | 1013.7 | ||||||
| 31 | 01:55 | Calm | 10.00 | Fair | CLR | 84 | 61 | 46% | 84 | 29.97 | 1013.9 | ||||||
| 31 | 00:55 | Calm | 10.00 | Fair | CLR | 85.5 | 61 | 44% | 86 | 29.98 | 1014.3 | ||||||
| 30 | 23:55 | Calm | 10.00 | Overcast | OVC180 | 86.4 | 61.2 | 43% | 87 | 29.98 | 1014.3 | ||||||
| 30 | 22:55 | Calm | 10.00 | A Few Clouds | FEW170 | 87.3 | 60.6 | 98.4 | 87.3 | 41% | 87 | 29.98 | 1014.4 | ||||
| Date | Time (mst) | Wind (mph) | Vis. (mi.) | Weather | Sky Cond. | Air | Dwpt | Max. | Min. | Relative Humidity | Wind Chill (°F) | Heat Index (°F) | altimeter (in) | sea level (mb) | 1 hr | 3 hr | 6 hr |
| 6 hour | |||||||||||||||||
| Temperature (ºF) | Pressure | Precipitation (in) | |||||||||||||||